Terminal Aerodrome Forecast
Issued by NWS

Home | Current Version | Previous Version | Text Only | Print | Product List | Glossary On
Versions: 1 2 3 4 5 6 7 8 9 10 11 12 13 14 15 16 17 18 19
878
FTUS41 KPBZ 251144
TAFBVI
TAF
KBVI 251144Z 2512/2612 23005KT P6SM BKN120
      TEMPO 2512/2513 5SM BR
     FM251700 24007KT P6SM VCTS BKN040CB
     FM260300 27003KT P6SM SCT250
     FM260900 30003KT 3SM BR SCT250
     FM261000 31003KT 2SM BR SCT003=

USA.gov is the U.S. government's official web portal to all federal, state and local government web resources and services.